sensor_id;sensor_type;location;lat;lon;timestamp;temperature;humidity
68450;SHT30;67758;39.572;2.652;2023-05-23T00:00:22;18.28;82.08
68450;SHT30;67758;39.572;2.652;2023-05-23T00:02:47;18.19;82.26
68450;SHT30;67758;39.572;2.652;2023-05-23T00:05:13;18.22;82.26
68450;SHT30;67758;39.572;2.652;2023-05-23T00:07:43;18.22;82.18
68450;SHT30;67758;39.572;2.652;2023-05-23T00:10:10;18.14;82.44
68450;SHT30;67758;39.572;2.652;2023-05-23T00:12:36;18.14;82.41
68450;SHT30;67758;39.572;2.652;2023-05-23T00:15:06;18.12;82.61
68450;SHT30;67758;39.572;2.652;2023-05-23T00:17:33;18.15;82.70
68450;SHT30;67758;39.572;2.652;2023-05-23T00:20:02;18.11;82.85
68450;SHT30;67758;39.572;2.652;2023-05-23T00:22:28;18.06;83.07
68450;SHT30;67758;39.572;2.652;2023-05-23T00:24:53;18.22;83.08
68450;SHT30;67758;39.572;2.652;2023-05-23T00:27:22;18.16;82.80
68450;SHT30;67758;39.572;2.652;2023-05-23T00:29:48;18.05;83.42
68450;SHT30;67758;39.572;2.652;2023-05-23T00:32:13;18.08;83.55
68450;SHT30;67758;39.572;2.652;2023-05-23T00:34:39;18.02;84.03
68450;SHT30;67758;39.572;2.652;2023-05-23T00:37:05;17.93;84.35
68450;SHT30;67758;39.572;2.652;2023-05-23T00:39:30;17.91;84.46
68450;SHT30;67758;39.572;2.652;2023-05-23T00:41:56;17.98;84.34
68450;SHT30;67758;39.572;2.652;2023-05-23T00:44:22;17.97;84.49
68450;SHT30;67758;39.572;2.652;2023-05-23T00:46:52;18.08;84.14
68450;SHT30;67758;39.572;2.652;2023-05-23T00:49:19;18.09;84.05
68450;SHT30;67758;39.572;2.652;2023-05-23T00:51:45;18.11;84.19
68450;SHT30;67758;39.572;2.652;2023-05-23T00:54:12;18.16;83.96
68450;SHT30;67758;39.572;2.652;2023-05-23T00:56:38;18.18;83.85
68450;SHT30;67758;39.572;2.652;2023-05-23T00:59:04;18.24;83.59
68450;SHT30;67758;39.572;2.652;2023-05-23T01:01:30;18.24;83.68
68450;SHT30;67758;39.572;2.652;2023-05-23T01:03:57;18.25;83.66
68450;SHT30;67758;39.572;2.652;2023-05-23T01:06:23;18.29;83.44
68450;SHT30;67758;39.572;2.652;2023-05-23T01:08:49;18.29;83.50
68450;SHT30;67758;39.572;2.652;2023-05-23T01:11:34;18.35;83.39
68450;SHT30;67758;39.572;2.652;2023-05-23T01:14:10;18.41;83.23
68450;SHT30;67758;39.572;2.652;2023-05-23T01:16:44;18.42;83.12
68450;SHT30;67758;39.572;2.652;2023-05-23T01:19:16;18.39;83.39
68450;SHT30;67758;39.572;2.652;2023-05-23T01:21:52;18.41;83.40
68450;SHT30;67758;39.572;2.652;2023-05-23T01:24:35;18.39;83.45
68450;SHT30;67758;39.572;2.652;2023-05-23T01:27:23;18.34;83.81
68450;SHT30;67758;39.572;2.652;2023-05-23T01:29:55;18.29;84.03
68450;SHT30;67758;39.572;2.652;2023-05-23T01:32:22;18.24;84.29
68450;SHT30;67758;39.572;2.652;2023-05-23T01:34:52;18.24;84.38
68450;SHT30;67758;39.572;2.652;2023-05-23T01:37:17;18.28;84.21
68450;SHT30;67758;39.572;2.652;2023-05-23T01:39:44;18.24;84.47
68450;SHT30;67758;39.572;2.652;2023-05-23T01:42:10;18.26;84.41
68450;SHT30;67758;39.572;2.652;2023-05-23T01:44:36;18.29;84.38
68450;SHT30;67758;39.572;2.652;2023-05-23T01:47:06;18.38;83.94
68450;SHT30;67758;39.572;2.652;2023-05-23T01:49:37;18.38;84.07
68450;SHT30;67758;39.572;2.652;2023-05-23T01:52:05;18.42;83.96
68450;SHT30;67758;39.572;2.652;2023-05-23T01:54:36;18.42;83.99
68450;SHT30;67758;39.572;2.652;2023-05-23T01:57:02;18.38;84.04
68450;SHT30;67758;39.572;2.652;2023-05-23T01:59:27;18.41;84.11
68450;SHT30;67758;39.572;2.652;2023-05-23T02:01:53;18.51;83.78
68450;SHT30;67758;39.572;2.652;2023-05-23T02:04:19;18.49;83.83
68450;SHT30;67758;39.572;2.652;2023-05-23T02:06:45;18.45;83.95
68450;SHT30;67758;39.572;2.652;2023-05-23T02:09:11;18.48;83.81
68450;SHT30;67758;39.572;2.652;2023-05-23T02:11:37;18.57;83.57
68450;SHT30;67758;39.572;2.652;2023-05-23T02:14:02;18.55;83.70
68450;SHT30;67758;39.572;2.652;2023-05-23T02:16:28;18.56;83.54
68450;SHT30;67758;39.572;2.652;2023-05-23T02:18:54;18.52;83.61
68450;SHT30;67758;39.572;2.652;2023-05-23T02:21:23;18.56;83.63
68450;SHT30;67758;39.572;2.652;2023-05-23T02:23:49;18.55;83.59
68450;SHT30;67758;39.572;2.652;2023-05-23T02:26:15;18.59;83.58
68450;SHT30;67758;39.572;2.652;2023-05-23T02:28:40;18.57;83.61
68450;SHT30;67758;39.572;2.652;2023-05-23T02:31:06;18.56;83.92
68450;SHT30;67758;39.572;2.652;2023-05-23T02:33:31;18.53;83.94
68450;SHT30;67758;39.572;2.652;2023-05-23T02:35:57;18.52;83.91
68450;SHT30;67758;39.572;2.652;2023-05-23T02:38:22;18.46;84.29
68450;SHT30;67758;39.572;2.652;2023-05-23T02:40:48;18.36;84.59
68450;SHT30;67758;39.572;2.652;2023-05-23T02:43:16;18.24;84.98
68450;SHT30;67758;39.572;2.652;2023-05-23T02:45:42;18.15;85.19
68450;SHT30;67758;39.572;2.652;2023-05-23T02:48:07;18.09;85.38
68450;SHT30;67758;39.572;2.652;2023-05-23T02:50:34;18.11;85.36
68450;SHT30;67758;39.572;2.652;2023-05-23T02:53:00;18.02;85.79
68450;SHT30;67758;39.572;2.652;2023-05-23T02:55:25;17.91;86.19
68450;SHT30;67758;39.572;2.652;2023-05-23T02:57:51;17.94;86.25
68450;SHT30;67758;39.572;2.652;2023-05-23T03:00:17;17.94;86.17
68450;SHT30;67758;39.572;2.652;2023-05-23T03:02:43;17.95;86.07
68450;SHT30;67758;39.572;2.652;2023-05-23T03:05:08;17.98;86.17
68450;SHT30;67758;39.572;2.652;2023-05-23T03:07:34;17.95;86.04
68450;SHT30;67758;39.572;2.652;2023-05-23T03:10:01;18.00;85.94
68450;SHT30;67758;39.572;2.652;2023-05-23T03:12:29;18.02;85.90
68450;SHT30;67758;39.572;2.652;2023-05-23T03:14:55;18.09;85.64
68450;SHT30;67758;39.572;2.652;2023-05-23T03:17:20;18.12;85.67
68450;SHT30;67758;39.572;2.652;2023-05-23T03:19:46;18.18;85.40
68450;SHT30;67758;39.572;2.652;2023-05-23T03:22:11;18.09;85.70
68450;SHT30;67758;39.572;2.652;2023-05-23T03:24:37;18.04;86.12
68450;SHT30;67758;39.572;2.652;2023-05-23T03:27:03;17.98;86.17
68450;SHT30;67758;39.572;2.652;2023-05-23T03:29:28;17.93;86.39
68450;SHT30;67758;39.572;2.652;2023-05-23T03:31:54;17.84;86.69
68450;SHT30;67758;39.572;2.652;2023-05-23T03:34:20;17.87;86.61
68450;SHT30;67758;39.572;2.652;2023-05-23T03:36:48;17.91;86.36
68450;SHT30;67758;39.572;2.652;2023-05-23T03:39:14;17.93;86.09
68450;SHT30;67758;39.572;2.652;2023-05-23T03:41:42;17.95;85.89
68450;SHT30;67758;39.572;2.652;2023-05-23T03:44:08;17.98;85.82
68450;SHT30;67758;39.572;2.652;2023-05-23T03:46:33;17.97;85.60
68450;SHT30;67758;39.572;2.652;2023-05-23T03:48:59;17.95;85.35
68450;SHT30;67758;39.572;2.652;2023-05-23T03:51:24;17.95;85.38
68450;SHT30;67758;39.572;2.652;2023-05-23T03:53:50;17.94;85.41
68450;SHT30;67758;39.572;2.652;2023-05-23T03:56:16;17.88;85.58
68450;SHT30;67758;39.572;2.652;2023-05-23T03:58:41;17.85;85.70
68450;SHT30;67758;39.572;2.652;2023-05-23T04:01:07;17.77;85.73
68450;SHT30;67758;39.572;2.652;2023-05-23T04:03:33;17.78;85.58
68450;SHT30;67758;39.572;2.652;2023-05-23T04:05:59;17.77;85.43
68450;SHT30;67758;39.572;2.652;2023-05-23T04:08:25;17.80;85.32
68450;SHT30;67758;39.572;2.652;2023-05-23T04:10:51;17.81;85.22
68450;SHT30;67758;39.572;2.652;2023-05-23T04:13:20;17.73;84.96
68450;SHT30;67758;39.572;2.652;2023-05-23T04:15:46;17.74;84.80
68450;SHT30;67758;39.572;2.652;2023-05-23T04:18:12;17.73;84.69
68450;SHT30;67758;39.572;2.652;2023-05-23T04:20:40;17.75;84.19
68450;SHT30;67758;39.572;2.652;2023-05-23T04:23:06;17.83;83.97
68450;SHT30;67758;39.572;2.652;2023-05-23T04:25:31;17.81;83.51
68450;SHT30;67758;39.572;2.652;2023-05-23T04:27:59;17.88;83.13
68450;SHT30;67758;39.572;2.652;2023-05-23T04:30:25;17.91;82.67
68450;SHT30;67758;39.572;2.652;2023-05-23T04:32:54;17.97;81.82
68450;SHT30;67758;39.572;2.652;2023-05-23T04:35:22;18.01;81.77
68450;SHT30;67758;39.572;2.652;2023-05-23T04:37:48;18.02;81.45
68450;SHT30;67758;39.572;2.652;2023-05-23T04:40:13;18.09;80.75
68450;SHT30;67758;39.572;2.652;2023-05-23T04:42:40;18.09;80.58
68450;SHT30;67758;39.572;2.652;2023-05-23T04:45:09;18.14;80.22
68450;SHT30;67758;39.572;2.652;2023-05-23T04:47:35;18.19;80.27
68450;SHT30;67758;39.572;2.652;2023-05-23T04:50:01;18.22;80.04
68450;SHT30;67758;39.572;2.652;2023-05-23T04:52:27;18.25;80.10
68450;SHT30;67758;39.572;2.652;2023-05-23T04:54:55;18.28;79.85
68450;SHT30;67758;39.572;2.652;2023-05-23T04:57:25;18.31;79.87
68450;SHT30;67758;39.572;2.652;2023-05-23T04:59:51;18.34;79.78
68450;SHT30;67758;39.572;2.652;2023-05-23T05:02:18;18.38;79.68
68450;SHT30;67758;39.572;2.652;2023-05-23T05:04:43;18.35;79.39
68450;SHT30;67758;39.572;2.652;2023-05-23T05:07:10;18.44;79.42
68450;SHT30;67758;39.572;2.652;2023-05-23T05:09:35;18.52;79.23
68450;SHT30;67758;39.572;2.652;2023-05-23T05:12:01;18.48;79.00
68450;SHT30;67758;39.572;2.652;2023-05-23T05:14:29;18.48;79.20
68450;SHT30;67758;39.572;2.652;2023-05-23T05:16:55;18.51;79.30
68450;SHT30;67758;39.572;2.652;2023-05-23T05:19:22;18.55;79.27
68450;SHT30;67758;39.572;2.652;2023-05-23T05:21:48;18.59;79.41
68450;SHT30;67758;39.572;2.652;2023-05-23T05:24:14;18.62;79.31
68450;SHT30;67758;39.572;2.652;2023-05-23T05:26:40;18.60;79.59
68450;SHT30;67758;39.572;2.652;2023-05-23T05:29:06;18.59;79.78
68450;SHT30;67758;39.572;2.652;2023-05-23T05:31:32;18.55;80.36
68450;SHT30;67758;39.572;2.652;2023-05-23T05:33:57;18.53;80.56
68450;SHT30;67758;39.572;2.652;2023-05-23T05:36:23;18.56;80.47
68450;SHT30;67758;39.572;2.652;2023-05-23T05:38:49;18.57;80.31
68450;SHT30;67758;39.572;2.652;2023-05-23T05:41:15;18.55;80.38
68450;SHT30;67758;39.572;2.652;2023-05-23T05:43:40;18.51;80.38
68450;SHT30;67758;39.572;2.652;2023-05-23T05:46:06;18.52;80.29
68450;SHT30;67758;39.572;2.652;2023-05-23T05:48:32;18.49;80.10
68450;SHT30;67758;39.572;2.652;2023-05-23T05:50:57;18.46;80.31
68450;SHT30;67758;39.572;2.652;2023-05-23T05:53:25;18.45;80.58
68450;SHT30;67758;39.572;2.652;2023-05-23T05:55:52;18.48;80.76
68450;SHT30;67758;39.572;2.652;2023-05-23T05:58:17;18.56;81.12
68450;SHT30;67758;39.572;2.652;2023-05-23T06:00:43;18.57;81.25
68450;SHT30;67758;39.572;2.652;2023-05-23T06:03:09;18.59;81.41
68450;SHT30;67758;39.572;2.652;2023-05-23T06:05:36;18.57;81.46
68450;SHT30;67758;39.572;2.652;2023-05-23T06:08:02;18.56;81.76
68450;SHT30;67758;39.572;2.652;2023-05-23T06:10:28;18.56;82.23
68450;SHT30;67758;39.572;2.652;2023-05-23T06:12:54;18.56;82.79
68450;SHT30;67758;39.572;2.652;2023-05-23T06:15:19;18.53;83.12
68450;SHT30;67758;39.572;2.652;2023-05-23T06:17:45;18.52;83.31
68450;SHT30;67758;39.572;2.652;2023-05-23T06:20:11;18.56;83.58
68450;SHT30;67758;39.572;2.652;2023-05-23T06:22:36;18.52;83.66
68450;SHT30;67758;39.572;2.652;2023-05-23T06:25:03;18.49;83.84
68450;SHT30;67758;39.572;2.652;2023-05-23T06:27:29;18.57;83.79
68450;SHT30;67758;39.572;2.652;2023-05-23T06:29:55;18.56;83.79
68450;SHT30;67758;39.572;2.652;2023-05-23T06:32:20;18.60;83.72
68450;SHT30;67758;39.572;2.652;2023-05-23T06:34:46;18.66;83.77
68450;SHT30;67758;39.572;2.652;2023-05-23T06:37:12;18.77;83.43
68450;SHT30;67758;39.572;2.652;2023-05-23T06:39:38;18.86;83.23
68450;SHT30;67758;39.572;2.652;2023-05-23T06:42:04;18.99;82.81
68450;SHT30;67758;39.572;2.652;2023-05-23T06:44:29;18.99;82.85
68450;SHT30;67758;39.572;2.652;2023-05-23T06:46:55;19.07;83.10
68450;SHT30;67758;39.572;2.652;2023-05-23T06:49:23;19.10;83.25
68450;SHT30;67758;39.572;2.652;2023-05-23T06:51:49;19.07;83.69
68450;SHT30;67758;39.572;2.652;2023-05-23T06:54:15;18.96;84.21
68450;SHT30;67758;39.572;2.652;2023-05-23T06:56:41;19.17;84.37
68450;SHT30;67758;39.572;2.652;2023-05-23T06:59:06;19.20;84.16
68450;SHT30;67758;39.572;2.652;2023-05-23T07:01:32;19.27;84.10
68450;SHT30;67758;39.572;2.652;2023-05-23T07:03:57;19.10;84.02
68450;SHT30;67758;39.572;2.652;2023-05-23T07:06:23;19.08;83.96
68450;SHT30;67758;39.572;2.652;2023-05-23T07:08:49;19.04;84.10
68450;SHT30;67758;39.572;2.652;2023-05-23T07:11:14;19.20;83.92
68450;SHT30;67758;39.572;2.652;2023-05-23T07:13:40;19.40;83.45
68450;SHT30;67758;39.572;2.652;2023-05-23T07:16:05;19.38;83.17
68450;SHT30;67758;39.572;2.652;2023-05-23T07:18:31;19.32;83.09
68450;SHT30;67758;39.572;2.652;2023-05-23T07:20:57;19.38;82.70
68450;SHT30;67758;39.572;2.652;2023-05-23T07:23:23;19.54;82.76
68450;SHT30;67758;39.572;2.652;2023-05-23T07:25:48;19.35;82.98
68450;SHT30;67758;39.572;2.652;2023-05-23T07:28:14;19.38;82.72
68450;SHT30;67758;39.572;2.652;2023-05-23T07:30:41;19.47;82.19
68450;SHT30;67758;39.572;2.652;2023-05-23T07:33:07;19.68;81.33
68450;SHT30;67758;39.572;2.652;2023-05-23T07:35:32;19.83;80.75
68450;SHT30;67758;39.572;2.652;2023-05-23T07:38:00;19.81;80.65
68450;SHT30;67758;39.572;2.652;2023-05-23T07:40:26;20.00;80.00
68450;SHT30;67758;39.572;2.652;2023-05-23T07:42:53;19.86;80.12
68450;SHT30;67758;39.572;2.652;2023-05-23T07:45:20;20.12;79.19
68450;SHT30;67758;39.572;2.652;2023-05-23T07:47:46;19.85;79.16
68450;SHT30;67758;39.572;2.652;2023-05-23T07:50:13;19.81;79.21
68450;SHT30;67758;39.572;2.652;2023-05-23T07:52:39;19.91;79.03
68450;SHT30;67758;39.572;2.652;2023-05-23T07:55:06;20.37;78.09
68450;SHT30;67758;39.572;2.652;2023-05-23T07:57:31;20.42;77.90
68450;SHT30;67758;39.572;2.652;2023-05-23T07:59:57;20.66;76.93
68450;SHT30;67758;39.572;2.652;2023-05-23T08:02:22;20.71;75.96
68450;SHT30;67758;39.572;2.652;2023-05-23T08:04:48;20.84;75.77
68450;SHT30;67758;39.572;2.652;2023-05-23T08:07:14;20.70;76.31
68450;SHT30;67758;39.572;2.652;2023-05-23T08:09:39;20.84;75.20
68450;SHT30;67758;39.572;2.652;2023-05-23T08:12:06;21.05;75.22
68450;SHT30;67758;39.572;2.652;2023-05-23T08:14:32;21.28;74.02
68450;SHT30;67758;39.572;2.652;2023-05-23T08:16:58;20.85;74.11
68450;SHT30;67758;39.572;2.652;2023-05-23T08:19:24;21.30;73.45
68450;SHT30;67758;39.572;2.652;2023-05-23T08:21:51;21.21;73.33
68450;SHT30;67758;39.572;2.652;2023-05-23T08:24:18;21.30;73.12
68450;SHT30;67758;39.572;2.652;2023-05-23T08:26:44;21.30;72.55
68450;SHT30;67758;39.572;2.652;2023-05-23T08:29:10;21.44;72.63
68450;SHT30;67758;39.572;2.652;2023-05-23T08:31:36;21.61;72.21
68450;SHT30;67758;39.572;2.652;2023-05-23T08:34:02;21.79;71.81
68450;SHT30;67758;39.572;2.652;2023-05-23T08:36:27;21.89;71.25
68450;SHT30;67758;39.572;2.652;2023-05-23T08:38:53;21.81;71.51
68450;SHT30;67758;39.572;2.652;2023-05-23T08:41:23;21.55;71.52
68450;SHT30;67758;39.572;2.652;2023-05-23T08:43:49;21.30;71.62
68450;SHT30;67758;39.572;2.652;2023-05-23T08:46:15;21.34;71.74
68450;SHT30;67758;39.572;2.652;2023-05-23T08:48:42;21.25;71.96
68450;SHT30;67758;39.572;2.652;2023-05-23T08:51:13;21.32;72.08
68450;SHT30;67758;39.572;2.652;2023-05-23T08:53:41;21.05;72.16
68450;SHT30;67758;39.572;2.652;2023-05-23T08:56:11;21.08;72.68
68450;SHT30;67758;39.572;2.652;2023-05-23T08:58:38;20.93;72.80
68450;SHT30;67758;39.572;2.652;2023-05-23T09:01:06;21.02;73.56
68450;SHT30;67758;39.572;2.652;2023-05-23T09:03:36;20.94;73.44
68450;SHT30;67758;39.572;2.652;2023-05-23T09:06:08;20.97;72.90
68450;SHT30;67758;39.572;2.652;2023-05-23T09:08:34;20.93;71.51
68450;SHT30;67758;39.572;2.652;2023-05-23T09:11:05;21.27;70.93
68450;SHT30;67758;39.572;2.652;2023-05-23T09:13:32;21.32;70.18
68450;SHT30;67758;39.572;2.652;2023-05-23T09:18:32;21.69;68.28
68450;SHT30;67758;39.572;2.652;2023-05-23T09:20:59;21.73;67.43
68450;SHT30;67758;39.572;2.652;2023-05-23T09:23:25;21.61;67.96
68450;SHT30;67758;39.572;2.652;2023-05-23T09:25:53;21.69;68.00
68450;SHT30;67758;39.572;2.652;2023-05-23T09:28:19;21.67;68.68
68450;SHT30;67758;39.572;2.652;2023-05-23T09:30:45;21.67;68.64
68450;SHT30;67758;39.572;2.652;2023-05-23T09:33:13;21.65;68.84
68450;SHT30;67758;39.572;2.652;2023-05-23T09:35:43;21.73;68.36
68450;SHT30;67758;39.572;2.652;2023-05-23T09:38:09;22.27;67.12
68450;SHT30;67758;39.572;2.652;2023-05-23T09:40:35;22.30;66.45
68450;SHT30;67758;39.572;2.652;2023-05-23T09:43:03;21.95;67.41
68450;SHT30;67758;39.572;2.652;2023-05-23T09:45:30;22.04;67.37
68450;SHT30;67758;39.572;2.652;2023-05-23T09:47:56;22.41;67.07
68450;SHT30;67758;39.572;2.652;2023-05-23T09:50:23;22.51;66.97
68450;SHT30;67758;39.572;2.652;2023-05-23T09:52:48;22.30;67.16
68450;SHT30;67758;39.572;2.652;2023-05-23T09:55:15;22.50;66.39
68450;SHT30;67758;39.572;2.652;2023-05-23T09:57:42;22.75;65.71
68450;SHT30;67758;39.572;2.652;2023-05-23T10:00:09;23.18;64.51
68450;SHT30;67758;39.572;2.652;2023-05-23T10:05:52;23.60;62.05
68450;SHT30;67758;39.572;2.652;2023-05-23T10:08:35;24.04;60.83
68450;SHT30;67758;39.572;2.652;2023-05-23T10:13:47;24.35;59.71
68450;SHT30;67758;39.572;2.652;2023-05-23T10:16:22;24.22;59.83
68450;SHT30;67758;39.572;2.652;2023-05-23T10:19:19;24.44;58.88
68450;SHT30;67758;39.572;2.652;2023-05-23T10:21:58;24.82;58.34
68450;SHT30;67758;39.572;2.652;2023-05-23T10:24:28;24.18;58.91
68450;SHT30;67758;39.572;2.652;2023-05-23T10:26:54;24.61;57.95
68450;SHT30;67758;39.572;2.652;2023-05-23T10:29:21;25.06;55.81
68450;SHT30;67758;39.572;2.652;2023-05-23T10:31:48;25.18;55.25
68450;SHT30;67758;39.572;2.652;2023-05-23T10:43:43;27.13;50.01
68450;SHT30;67758;39.572;2.652;2023-05-23T10:46:12;26.95;51.24
68450;SHT30;67758;39.572;2.652;2023-05-23T10:48:43;27.11;50.56
68450;SHT30;67758;39.572;2.652;2023-05-23T10:51:11;27.89;49.18
68450;SHT30;67758;39.572;2.652;2023-05-23T10:53:43;27.68;49.30
68450;SHT30;67758;39.572;2.652;2023-05-23T10:56:21;27.68;49.97
68450;SHT30;67758;39.572;2.652;2023-05-23T10:58:55;27.30;50.35
68450;SHT30;67758;39.572;2.652;2023-05-23T11:01:23;27.00;49.98
68450;SHT30;67758;39.572;2.652;2023-05-23T11:03:51;26.99;50.46
68450;SHT30;67758;39.572;2.652;2023-05-23T11:06:38;26.75;50.94
68450;SHT30;67758;39.572;2.652;2023-05-23T11:09:16;26.49;51.02
68450;SHT30;67758;39.572;2.652;2023-05-23T11:12:00;27.53;48.90
68450;SHT30;67758;39.572;2.652;2023-05-23T11:19:55;28.23;47.28
68450;SHT30;67758;39.572;2.652;2023-05-23T11:22:27;28.50;47.16
68450;SHT30;67758;39.572;2.652;2023-05-23T11:24:55;28.79;46.90
68450;SHT30;67758;39.572;2.652;2023-05-23T11:27:31;27.33;49.51
68450;SHT30;67758;39.572;2.652;2023-05-23T11:30:03;28.06;48.39
68450;SHT30;67758;39.572;2.652;2023-05-23T11:32:31;27.78;48.85
68450;SHT30;67758;39.572;2.652;2023-05-23T11:35:05;26.66;51.13
68450;SHT30;67758;39.572;2.652;2023-05-23T11:37:31;26.22;53.03
68450;SHT30;67758;39.572;2.652;2023-05-23T11:39:57;25.37;54.93
68450;SHT30;67758;39.572;2.652;2023-05-23T11:42:23;25.34;55.74
68450;SHT30;67758;39.572;2.652;2023-05-23T11:44:50;25.06;56.06
68450;SHT30;67758;39.572;2.652;2023-05-23T11:47:16;25.10;56.10
68450;SHT30;67758;39.572;2.652;2023-05-23T11:49:44;24.98;56.87
68450;SHT30;67758;39.572;2.652;2023-05-23T11:52:11;24.99;56.17
68450;SHT30;67758;39.572;2.652;2023-05-23T11:54:39;24.65;55.93
68450;SHT30;67758;39.572;2.652;2023-05-23T11:57:05;24.96;55.70
68450;SHT30;67758;39.572;2.652;2023-05-23T11:59:33;24.85;56.38
68450;SHT30;67758;39.572;2.652;2023-05-23T12:02:01;24.98;58.23
68450;SHT30;67758;39.572;2.652;2023-05-23T12:04:27;24.93;60.70
68450;SHT30;67758;39.572;2.652;2023-05-23T12:06:56;25.37;60.64
68450;SHT30;67758;39.572;2.652;2023-05-23T12:09:21;25.24;57.24
68450;SHT30;67758;39.572;2.652;2023-05-23T12:11:51;25.36;56.31
68450;SHT30;67758;39.572;2.652;2023-05-23T12:14:19;25.75;54.78
68450;SHT30;67758;39.572;2.652;2023-05-23T12:16:45;25.49;54.92
68450;SHT30;67758;39.572;2.652;2023-05-23T12:19:13;25.90;54.27
68450;SHT30;67758;39.572;2.652;2023-05-23T12:21:50;25.93;54.28
68450;SHT30;67758;39.572;2.652;2023-05-23T12:24:20;25.77;54.30
68450;SHT30;67758;39.572;2.652;2023-05-23T12:27:01;25.36;55.56
68450;SHT30;67758;39.572;2.652;2023-05-23T12:29:32;25.59;55.39
68450;SHT30;67758;39.572;2.652;2023-05-23T12:32:06;25.29;55.42
68450;SHT30;67758;39.572;2.652;2023-05-23T12:34:33;25.00;56.45
68450;SHT30;67758;39.572;2.652;2023-05-23T12:37:00;25.22;55.60
68450;SHT30;67758;39.572;2.652;2023-05-23T12:39:28;24.85;56.54
68450;SHT30;67758;39.572;2.652;2023-05-23T12:42:07;24.40;56.21
68450;SHT30;67758;39.572;2.652;2023-05-23T12:44:40;24.03;56.83
68450;SHT30;67758;39.572;2.652;2023-05-23T12:47:06;24.13;57.39
68450;SHT30;67758;39.572;2.652;2023-05-23T12:49:34;23.76;58.29
68450;SHT30;67758;39.572;2.652;2023-05-23T12:52:00;23.65;58.75
68450;SHT30;67758;39.572;2.652;2023-05-23T12:54:26;23.66;58.95
68450;SHT30;67758;39.572;2.652;2023-05-23T12:56:52;23.52;60.64
68450;SHT30;67758;39.572;2.652;2023-05-23T12:59:23;23.35;62.71
68450;SHT30;67758;39.572;2.652;2023-05-23T13:01:49;23.15;63.53
68450;SHT30;67758;39.572;2.652;2023-05-23T13:04:15;23.01;64.35
68450;SHT30;67758;39.572;2.652;2023-05-23T13:06:40;22.90;65.64
68450;SHT30;67758;39.572;2.652;2023-05-23T13:09:06;22.99;66.56
68450;SHT30;67758;39.572;2.652;2023-05-23T13:11:32;23.01;66.79
68450;SHT30;67758;39.572;2.652;2023-05-23T13:14:00;22.84;67.10
68450;SHT30;67758;39.572;2.652;2023-05-23T13:16:26;22.95;67.53
68450;SHT30;67758;39.572;2.652;2023-05-23T13:18:52;23.09;68.31
68450;SHT30;67758;39.572;2.652;2023-05-23T13:21:18;23.33;68.60
68450;SHT30;67758;39.572;2.652;2023-05-23T13:23:44;23.14;68.08
68450;SHT30;67758;39.572;2.652;2023-05-23T13:26:13;23.38;68.13
68450;SHT30;67758;39.572;2.652;2023-05-23T13:28:40;23.39;68.13
68450;SHT30;67758;39.572;2.652;2023-05-23T13:31:08;23.55;67.62
68450;SHT30;67758;39.572;2.652;2023-05-23T13:33:36;23.79;65.95
68450;SHT30;67758;39.572;2.652;2023-05-23T13:36:02;24.24;64.23
68450;SHT30;67758;39.572;2.652;2023-05-23T13:38:31;24.99;61.79
68450;SHT30;67758;39.572;2.652;2023-05-23T13:41:00;25.53;60.26
68450;SHT30;67758;39.572;2.652;2023-05-23T13:43:26;26.29;58.57
68450;SHT30;67758;39.572;2.652;2023-05-23T13:45:51;25.78;58.11
68450;SHT30;67758;39.572;2.652;2023-05-23T13:48:17;25.46;58.52
68450;SHT30;67758;39.572;2.652;2023-05-23T13:50:44;26.36;56.82
68450;SHT30;67758;39.572;2.652;2023-05-23T13:53:12;26.46;56.10
68450;SHT30;67758;39.572;2.652;2023-05-23T13:55:41;26.48;55.75
68450;SHT30;67758;39.572;2.652;2023-05-23T13:58:07;26.56;55.43
68450;SHT30;67758;39.572;2.652;2023-05-23T14:00:33;26.87;55.08
68450;SHT30;67758;39.572;2.652;2023-05-23T14:02:59;26.17;55.96
68450;SHT30;67758;39.572;2.652;2023-05-23T14:05:24;26.87;54.58
68450;SHT30;67758;39.572;2.652;2023-05-23T14:07:50;28.01;52.23
68450;SHT30;67758;39.572;2.652;2023-05-23T14:10:16;27.24;53.14
68450;SHT30;67758;39.572;2.652;2023-05-23T14:12:42;27.33;52.56
68450;SHT30;67758;39.572;2.652;2023-05-23T14:15:08;27.51;52.65
68450;SHT30;67758;39.572;2.652;2023-05-23T14:17:34;27.80;52.05
68450;SHT30;67758;39.572;2.652;2023-05-23T14:20:01;27.57;52.57
68450;SHT30;67758;39.572;2.652;2023-05-23T14:22:27;28.53;50.87
68450;SHT30;67758;39.572;2.652;2023-05-23T14:24:53;28.84;49.89
68450;SHT30;67758;39.572;2.652;2023-05-23T14:27:18;28.55;49.81
68450;SHT30;67758;39.572;2.652;2023-05-23T14:29:44;28.29;49.88
68450;SHT30;67758;39.572;2.652;2023-05-23T14:32:13;27.92;51.17
68450;SHT30;67758;39.572;2.652;2023-05-23T14:34:38;28.08;51.07
68450;SHT30;67758;39.572;2.652;2023-05-23T14:37:04;28.64;49.70
68450;SHT30;67758;39.572;2.652;2023-05-23T14:39:30;28.98;49.18
68450;SHT30;67758;39.572;2.652;2023-05-23T14:41:56;28.64;50.13
68450;SHT30;67758;39.572;2.652;2023-05-23T14:44:22;29.08;49.27
68450;SHT30;67758;39.572;2.652;2023-05-23T14:46:48;28.35;49.81
68450;SHT30;67758;39.572;2.652;2023-05-23T14:49:16;29.12;48.49
68450;SHT30;67758;39.572;2.652;2023-05-23T14:51:42;29.59;47.57
68450;SHT30;67758;39.572;2.652;2023-05-23T14:54:08;30.08;46.74
68450;SHT30;67758;39.572;2.652;2023-05-23T14:56:37;28.52;49.63
68450;SHT30;67758;39.572;2.652;2023-05-23T14:59:05;27.98;50.57
68450;SHT30;67758;39.572;2.652;2023-05-23T15:01:32;28.52;49.66
68450;SHT30;67758;39.572;2.652;2023-05-23T15:03:58;28.40;49.78
68450;SHT30;67758;39.572;2.652;2023-05-23T15:06:24;28.12;50.79
68450;SHT30;67758;39.572;2.652;2023-05-23T15:08:56;27.23;52.72
68450;SHT30;67758;39.572;2.652;2023-05-23T15:11:25;27.02;52.96
68450;SHT30;67758;39.572;2.652;2023-05-23T15:13:54;26.95;53.51
68450;SHT30;67758;39.572;2.652;2023-05-23T15:16:22;26.59;54.42
68450;SHT30;67758;39.572;2.652;2023-05-23T15:18:49;26.49;53.89
68450;SHT30;67758;39.572;2.652;2023-05-23T15:21:16;26.59;54.19
68450;SHT30;67758;39.572;2.652;2023-05-23T15:23:43;26.51;53.87
68450;SHT30;67758;39.572;2.652;2023-05-23T15:26:10;27.46;52.03
68450;SHT30;67758;39.572;2.652;2023-05-23T15:28:36;27.31;52.18
68450;SHT30;67758;39.572;2.652;2023-05-23T15:31:01;26.75;53.64
68450;SHT30;67758;39.572;2.652;2023-05-23T15:33:27;26.97;53.00
68450;SHT30;67758;39.572;2.652;2023-05-23T15:35:53;26.36;54.12
68450;SHT30;67758;39.572;2.652;2023-05-23T15:38:19;27.16;52.75
68450;SHT30;67758;39.572;2.652;2023-05-23T15:40:44;27.08;52.77
68450;SHT30;67758;39.572;2.652;2023-05-23T15:43:12;26.95;53.05
68450;SHT30;67758;39.572;2.652;2023-05-23T15:45:38;27.29;52.26
68450;SHT30;67758;39.572;2.652;2023-05-23T15:48:04;27.74;51.32
68450;SHT30;67758;39.572;2.652;2023-05-23T15:50:30;27.81;50.51
68450;SHT30;67758;39.572;2.652;2023-05-23T15:52:56;27.72;50.28